Shoukeimaruno.3 — JI3587 — position and weather

sailwx.info

Track history (hours):
 
Tides and Currents Weather Stations Pressure Air Temp Water Temp Dewpoint Dewpoint Depression Visibility Wind Speed Wind Dir Waves Ship Positions

Shoukeimaruno.3

Last reported at 2014-Oct-15 00:31 UTC. Time now 2014-Oct-22 00:03 UTC.
Position N 35°13' E 139°46'.

Length 77 m; draft 4 m.

Type: Cargo ship. MMSI: 431300325.

Date/timePositionNaut miles runAvg speedWind from/ knotsBaromVisibWave heightAir tempDewpointWater temp
2014-Oct-15 00:31N 35°13' E 139°46'1111.8
2014-Oct-14 23:33N 35°24' E 139°43'1312.7
2014-Oct-14 22:33N 35°33' E 139°54'15 0.3
2014-Oct-12 20:33N 35°23' E 139°40'0 0.0
2014-Oct-12 19:34N 35°23' E 139°40'0 0.0
2014-Oct-12 18:33N 35°23' E 139°40'0 0.0
2014-Oct-12 17:34N 35°23' E 139°40'0 0.0
2014-Oct-12 16:33N 35°23' E 139°40'0 0.0
2014-Oct-12 15:34N 35°23' E 139°40'0 0.0
2014-Oct-12 14:33N 35°23' E 139°40'0 0.0
2014-Oct-12 13:33N 35°23' E 139°40'0 0.0
2014-Oct-12 12:33N 35°23' E 139°40'0 0.1
2014-Oct-12 11:33N 35°23' E 139°40'0 0.0
2014-Oct-12 10:33N 35°23' E 139°40'0 0.1
2014-Oct-12 09:33N 35°23' E 139°40'2 2.2
2014-Oct-12 08:33N 35°24' E 139°37'0 0.0
2014-Oct-12 07:33N 35°24' E 139°37'0 0.0
2014-Oct-12 06:34N 35°24' E 139°37'0 0.0
2014-Oct-12 05:33N 35°24' E 139°37'0 0.0
2014-Oct-12 04:34N 35°24' E 139°37'0 0.0
2014-Oct-12 03:34N 35°24' E 139°37'0 0.0
2014-Oct-12 02:33N 35°24' E 139°37'0 0.0
2014-Oct-12 01:34N 35°24' E 139°37'0 0.0
2014-Oct-12 00:33N 35°24' E 139°37'1 0.7
2014-Oct-11 23:33N 35°24' E 139°38'1 1.1
2014-Oct-11 22:33N 35°24' E 139°40'0 0.0
2014-Oct-11 21:33N 35°24' E 139°40'0 0.0
2014-Oct-11 20:34N 35°24' E 139°40'0 0.0
2014-Oct-11 19:33N 35°24' E 139°40'0 0.0
2014-Oct-11 18:34N 35°24' E 139°40'0 0.0
2014-Oct-11 17:33N 35°24' E 139°40'0 0.0
2014-Oct-11 16:34N 35°24' E 139°40'0 0.0
2014-Oct-11 15:34N 35°24' E 139°40'0 0.0
2014-Oct-11 14:34N 35°24' E 139°40'0 0.0
2014-Oct-11 13:33N 35°24' E 139°40'0 0.0
2014-Oct-11 12:34N 35°24' E 139°40'0 0.0
2014-Oct-11 11:33N 35°24' E 139°40'0 0.0
2014-Oct-11 10:33N 35°24' E 139°40'0 0.0
2014-Oct-11 09:33N 35°24' E 139°40'0 0.0
2014-Oct-11 08:34N 35°24' E 139°40'0 0.0
2014-Oct-11 07:34N 35°24' E 139°40'0 0.0
2014-Oct-11 06:33N 35°24' E 139°40'8 7.9
2014-Oct-11 05:33N 35°17' E 139°45'  
Track history (hours):
 
Tides and Currents Weather Stations Pressure Air Temp Water Temp Dewpoint Dewpoint Depression Visibility Wind Speed Wind Dir Waves Ship Positions

Shoukeimaruno.3

Last reported at 2014-Oct-15 00:31 UTC. Time now 2014-Oct-22 00:03 UTC.
Position N 35°13' E 139°46'.

Length 77 m; draft 4 m.

Type: Cargo ship. MMSI: 431300325.

Date/timePositionNaut miles runAvg speedWind from/ knotsBaromVisibWave heightAir tempDewpointWater temp
2014-Oct-15 00:31N 35°13' E 139°46'1111.8
2014-Oct-14 23:33N 35°24' E 139°43'1312.7
2014-Oct-14 22:33N 35°33' E 139°54'15 0.3
2014-Oct-12 20:33N 35°23' E 139°40'0 0.0
2014-Oct-12 19:34N 35°23' E 139°40'0 0.0
2014-Oct-12 18:33N 35°23' E 139°40'0 0.0
2014-Oct-12 17:34N 35°23' E 139°40'0 0.0
2014-Oct-12 16:33N 35°23' E 139°40'0 0.0
2014-Oct-12 15:34N 35°23' E 139°40'0 0.0
2014-Oct-12 14:33N 35°23' E 139°40'0 0.0
2014-Oct-12 13:33N 35°23' E 139°40'0 0.0
2014-Oct-12 12:33N 35°23' E 139°40'0 0.1
2014-Oct-12 11:33N 35°23' E 139°40'0 0.0
2014-Oct-12 10:33N 35°23' E 139°40'0 0.1
2014-Oct-12 09:33N 35°23' E 139°40'2 2.2
2014-Oct-12 08:33N 35°24' E 139°37'0 0.0
2014-Oct-12 07:33N 35°24' E 139°37'0 0.0
2014-Oct-12 06:34N 35°24' E 139°37'0 0.0
2014-Oct-12 05:33N 35°24' E 139°37'0 0.0
2014-Oct-12 04:34N 35°24' E 139°37'0 0.0
2014-Oct-12 03:34N 35°24' E 139°37'0 0.0
2014-Oct-12 02:33N 35°24' E 139°37'0 0.0
2014-Oct-12 01:34N 35°24' E 139°37'0 0.0
2014-Oct-12 00:33N 35°24' E 139°37'1 0.7
2014-Oct-11 23:33N 35°24' E 139°38'1 1.1
2014-Oct-11 22:33N 35°24' E 139°40'0 0.0
2014-Oct-11 21:33N 35°24' E 139°40'0 0.0
2014-Oct-11 20:34N 35°24' E 139°40'0 0.0
2014-Oct-11 19:33N 35°24' E 139°40'0 0.0
2014-Oct-11 18:34N 35°24' E 139°40'0 0.0
2014-Oct-11 17:33N 35°24' E 139°40'0 0.0
2014-Oct-11 16:34N 35°24' E 139°40'0 0.0
2014-Oct-11 15:34N 35°24' E 139°40'0 0.0
2014-Oct-11 14:34N 35°24' E 139°40'0 0.0
2014-Oct-11 13:33N 35°24' E 139°40'0 0.0
2014-Oct-11 12:34N 35°24' E 139°40'0 0.0
2014-Oct-11 11:33N 35°24' E 139°40'0 0.0
2014-Oct-11 10:33N 35°24' E 139°40'0 0.0
2014-Oct-11 09:33N 35°24' E 139°40'0 0.0
2014-Oct-11 08:34N 35°24' E 139°40'0 0.0
2014-Oct-11 07:34N 35°24' E 139°40'0 0.0
2014-Oct-11 06:33N 35°24' E 139°40'8 7.9
2014-Oct-11 05:33N 35°17' E 139°45'  

Dump ship's entire track history